Time,TemperatureF,DewpointF,PressureIn,WindDirection,WindDirectionDegrees,WindSpeedMPH,WindSpeedGustMPH,Humidity,HourlyPrecipIn,Conditions,Clouds,dailyrainin,SoftwareType,DateUTC
2013-03-18 00:04:00,35.5,34.7,29.75,North,1,0.0,14.0,97,0.00,,,0.00,Wunderground v.1.15,2013-03-18 05:04:00,
2013-03-18 00:15:00,35.6,34.8,29.75,NNW,343,1.0,14.0,97,0.00,,,0.00,Wunderground v.1.15,2013-03-18 05:15:00,
2013-03-18 00:25:00,35.6,34.8,29.75,North,350,0.0,14.0,97,0.00,,,0.00,Wunderground v.1.15,2013-03-18 05:25:00,
2013-03-18 00:35:00,35.6,34.8,29.75,NNW,328,1.0,14.0,97,0.00,,,0.00,Wunderground v.1.15,2013-03-18 05:35:00,
2013-03-18 00:44:00,35.6,34.8,29.75,North,353,0.0,14.0,97,0.00,,,0.00,Wunderground v.1.15,2013-03-18 05:44:00,
2013-03-18 00:50:00,35.6,34.8,29.75,NE,34,0.0,14.0,97,0.00,,,0.00,Wunderground v.1.15,2013-03-18 05:50:00,
2013-03-18 01:00:00,35.6,34.8,29.74,NNE,30,0.0,14.0,97,0.00,,,0.00,Wunderground v.1.15,2013-03-18 06:00:00,
2013-03-18 01:10:00,35.6,34.8,29.74,NNW,328,0.0,14.0,97,0.00,,,0.00,Wunderground v.1.15,2013-03-18 06:10:00,
2013-03-18 01:19:00,35.6,34.8,29.73,North,359,0.0,14.0,97,0.00,,,0.00,Wunderground v.1.15,2013-03-18 06:19:00,
2013-03-18 01:30:00,35.6,34.8,29.74,NNW,347,0.0,14.0,97,0.00,,,0.00,Wunderground v.1.15,2013-03-18 06:30:00,
2013-03-18 01:40:00,35.6,34.8,29.73,NW,323,0.0,14.0,97,0.00,,,0.00,Wunderground v.1.15,2013-03-18 06:40:00,
2013-03-18 01:49:00,35.7,34.9,29.72,NNW,340,0.0,14.0,97,0.00,,,0.00,Wunderground v.1.15,2013-03-18 06:49:00,
2013-03-18 01:59:00,35.7,34.9,29.72,North,356,0.0,14.0,97,0.00,,,0.00,Wunderground v.1.15,2013-03-18 06:59:00,
2013-03-18 02:10:00,35.7,34.9,29.72,NNW,328,0.0,14.0,97,0.00,,,0.00,Wunderground v.1.15,2013-03-18 07:10:00,
2013-03-18 02:20:00,35.7,34.9,29.73,NNW,330,0.0,14.0,97,0.00,,,0.00,Wunderground v.1.15,2013-03-18 07:20:00,
2013-03-18 02:29:00,35.8,35.0,29.73,West,264,0.0,14.0,97,0.00,,,0.00,Wunderground v.1.15,2013-03-18 07:29:00,
2013-03-18 02:39:00,35.8,35.0,29.73,West,274,0.0,14.0,97,0.00,,,0.00,Wunderground v.1.15,2013-03-18 07:39:00,
2013-03-18 02:45:00,35.9,35.1,29.75,WSW,240,0.0,14.0,97,0.00,,,0.00,Wunderground v.1.15,2013-03-18 07:45:00,
2013-03-18 02:55:00,35.8,35.0,29.74,WSW,245,0.0,14.0,97,0.00,,,0.00,Wunderground v.1.15,2013-03-18 07:55:00,
2013-03-18 03:05:00,35.8,35.0,29.74,WSW,245,0.0,14.0,97,0.00,,,0.00,Wunderground v.1.15,2013-03-18 08:05:00,
2013-03-18 03:14:00,35.8,35.0,29.74,SW,226,0.0,14.0,97,0.00,,,0.00,Wunderground v.1.15,2013-03-18 08:14:00,
2013-03-18 03:25:00,35.9,35.1,29.74,SW,230,0.0,14.0,97,0.00,,,0.00,Wunderground v.1.15,2013-03-18 08:25:00,
2013-03-18 03:35:00,35.8,35.0,29.73,WSW,256,0.0,14.0,97,0.00,,,0.00,Wunderground v.1.15,2013-03-18 08:35:00,
2013-03-18 03:45:00,35.8,35.0,29.74,SW,220,0.0,14.0,97,0.00,,,0.00,Wunderground v.1.15,2013-03-18 08:45:00,
2013-03-18 03:54:00,35.8,35.0,29.74,SW,233,0.0,14.0,97,0.00,,,0.00,Wunderground v.1.15,2013-03-18 08:54:00,
2013-03-18 04:04:00,35.8,35.0,29.73,SW,231,0.0,14.0,97,0.00,,,0.00,Wunderground v.1.15,2013-03-18 09:04:00,
2013-03-18 04:14:00,35.8,35.0,29.73,WSW,242,0.0,14.0,97,0.00,,,0.00,Wunderground v.1.15,2013-03-18 09:14:00,
2013-03-18 04:20:00,35.8,35.0,29.73,WSW,257,0.0,14.0,97,0.00,,,0.00,Wunderground v.1.15,2013-03-18 09:20:00,
2013-03-18 04:25:00,35.8,35.0,29.73,SW,227,0.0,14.0,97,0.00,,,0.00,Wunderground v.1.15,2013-03-18 09:25:00,
2013-03-18 04:35:00,35.9,35.1,29.73,SW,227,0.0,14.0,97,0.00,,,0.00,Wunderground v.1.15,2013-03-18 09:35:00,
2013-03-18 04:44:00,35.9,35.1,29.74,SW,228,0.0,14.0,97,0.00,,,0.00,Wunderground v.1.15,2013-03-18 09:44:00,
2013-03-18 04:55:00,36.0,35.5,29.74,SW,228,0.0,14.0,98,0.00,,,0.00,Wunderground v.1.15,2013-03-18 09:55:00,
2013-03-18 05:05:00,36.0,35.5,29.74,SW,226,0.0,14.0,98,0.00,,,0.00,Wunderground v.1.15,2013-03-18 10:05:00,
2013-03-18 05:15:00,36.1,35.6,29.74,West,273,0.0,14.0,98,0.00,,,0.00,Wunderground v.1.15,2013-03-18 10:15:00,
2013-03-18 05:24:00,36.1,35.6,29.75,SW,226,0.0,14.0,98,0.00,,,0.00,Wunderground v.1.15,2013-03-18 10:24:00,
2013-03-18 05:35:00,36.1,35.6,29.76,SSE,156,0.0,14.0,98,0.00,,,0.00,Wunderground v.1.15,2013-03-18 10:35:00,
2013-03-18 05:45:00,36.1,35.6,29.75,SE,145,0.0,14.0,98,0.00,,,0.00,Wunderground v.1.15,2013-03-18 10:45:00,
2013-03-18 05:55:00,36.1,35.6,29.74,West,266,0.0,14.0,98,0.00,,,0.00,Wunderground v.1.15,2013-03-18 10:55:00,
2013-03-18 06:04:00,36.2,35.7,29.75,West,266,0.0,14.0,98,0.00,,,0.00,Wunderground v.1.15,2013-03-18 11:04:00,
2013-03-18 06:14:00,36.3,35.8,29.76,SE,129,0.0,14.0,98,0.00,,,0.00,Wunderground v.1.15,2013-03-18 11:14:00,
2013-03-18 06:20:00,36.3,35.8,29.77,SE,145,0.0,14.0,98,0.00,,,0.00,Wunderground v.1.15,2013-03-18 11:20:00,
2013-03-18 06:30:00,36.4,35.9,29.77,SE,131,0.0,14.0,98,0.00,,,0.00,Wunderground v.1.15,2013-03-18 11:30:00,
2013-03-18 06:40:00,36.3,35.8,29.77,ESE,113,0.0,14.0,98,0.00,,,0.00,Wunderground v.1.15,2013-03-18 11:40:00,
2013-03-18 06:49:00,36.2,35.7,29.77,ESE,120,0.0,14.0,98,0.00,,,0.00,Wunderground v.1.15,2013-03-18 11:49:00,
2013-03-18 07:00:00,36.2,35.7,29.76,SSW,203,0.0,14.0,98,0.00,,,0.00,Wunderground v.1.15,2013-03-18 12:00:00,
2013-03-18 07:10:00,36.1,35.6,29.77,SSW,197,0.0,14.0,98,0.00,,,0.00,Wunderground v.1.15,2013-03-18 12:10:00,
2013-03-18 07:19:00,36.2,35.7,29.77,ESE,106,0.0,14.0,98,0.00,,,0.00,Wunderground v.1.15,2013-03-18 12:19:00,
2013-03-18 07:29:00,36.2,35.7,29.78,SSW,210,0.0,14.0,98,0.00,,,0.00,Wunderground v.1.15,2013-03-18 12:29:00,
2013-03-18 07:40:00,36.3,35.8,29.78,ESE,122,0.0,14.0,98,0.00,,,0.00,Wunderground v.1.15,2013-03-18 12:40:00,
2013-03-18 07:50:00,36.4,35.9,29.79,SW,234,0.0,14.0,98,0.00,,,0.00,Wunderground v.1.15,2013-03-18 12:50:00,
2013-03-18 07:55:00,36.4,35.9,29.79,SW,222,0.0,14.0,98,0.00,,,0.00,Wunderground v.1.15,2013-03-18 12:55:00,
2013-03-18 08:05:00,36.5,36.0,29.79,SSE,163,0.0,14.0,98,0.00,,,0.00,Wunderground v.1.15,2013-03-18 13:05:00,
2013-03-18 08:15:00,36.4,35.9,29.80,SW,224,2.0,3.0,98,0.00,,,0.00,Wunderground v.1.15,2013-03-18 13:15:00,
2013-03-18 08:20:00,36.4,35.9,29.79,SSW,206,2.0,14.0,98,0.00,,,0.00,Wunderground v.1.15,2013-03-18 13:20:00,
2013-03-18 08:29:00,36.6,36.1,29.81,SSE,159,1.0,1.0,98,0.00,,,0.00,Wunderground v.1.15,2013-03-18 13:29:00,
2013-03-18 08:35:00,36.7,36.2,29.81,ESE,115,1.0,3.0,98,0.00,,,0.00,Wunderground v.1.15,2013-03-18 13:35:00,
2013-03-18 08:45:00,36.9,36.4,29.82,SSE,150,1.0,14.0,98,0.00,,,0.00,Wunderground v.1.15,2013-03-18 13:45:00,
2013-03-18 08:54:00,37.1,36.6,29.83,West,274,1.0,14.0,98,0.00,,,0.00,Wunderground v.1.15,2013-03-18 13:54:00,
2013-03-18 09:04:00,37.2,36.7,29.83,SE,125,1.0,2.0,98,0.00,,,0.00,Wunderground v.1.15,2013-03-18 14:04:00,
2013-03-18 09:15:00,37.3,36.8,29.84,South,186,2.0,3.0,98,0.00,,,0.00,Wunderground v.1.15,2013-03-18 14:15:00,
2013-03-18 09:25:00,37.3,36.8,29.85,South,172,2.0,14.0,98,0.00,,,0.00,Wunderground v.1.15,2013-03-18 14:25:00,
2013-03-18 09:34:00,37.3,36.5,29.85,South,173,2.0,14.0,97,0.00,,,0.00,Wunderground v.1.15,2013-03-18 14:34:00,
2013-03-18 09:44:00,37.2,36.4,29.86,SE,139,3.0,14.0,97,0.00,,,0.00,Wunderground v.1.15,2013-03-18 14:44:00,
2013-03-18 09:55:00,37.3,36.5,29.86,SSE,166,2.0,14.0,97,0.00,,,0.00,Wunderground v.1.15,2013-03-18 14:55:00,
2013-03-18 10:05:00,37.5,36.7,29.85,South,179,2.0,14.0,97,0.00,,,0.00,Wunderground v.1.15,2013-03-18 15:05:00,
2013-03-18 10:15:00,37.9,36.9,29.86,SW,236,2.0,14.0,96,0.00,,,0.00,Wunderground v.1.15,2013-03-18 15:15:00,
2013-03-18 10:24:00,38.0,37.0,29.86,SE,129,2.0,14.0,96,0.00,,,0.00,Wunderground v.1.15,2013-03-18 15:24:00,
2013-03-18 10:35:00,38.3,37.0,29.86,SW,225,2.0,6.0,95,0.00,,,0.00,Wunderground v.1.15,2013-03-18 15:35:00,
2013-03-18 10:45:00,38.3,37.0,29.85,South,170,2.0,14.0,95,0.00,,,0.00,Wunderground v.1.15,2013-03-18 15:45:00,
2013-03-18 10:54:00,38.8,37.5,29.85,SSW,203,2.0,14.0,95,0.00,,,0.00,Wunderground v.1.15,2013-03-18 15:54:00,
2013-03-18 11:04:00,39.1,37.5,29.86,WSW,238,2.0,14.0,94,0.00,,,0.00,Wunderground v.1.15,2013-03-18 16:04:00,
2013-03-18 11:15:00,39.4,37.8,29.87,South,184,3.0,14.0,94,0.00,,,0.00,Wunderground v.1.15,2013-03-18 16:15:00,
2013-03-18 11:20:00,39.6,38.0,29.88,WSW,243,3.0,3.0,94,0.00,,,0.00,Wunderground v.1.15,2013-03-18 16:20:00,
2013-03-18 11:30:00,39.9,38.0,29.88,SSE,160,2.0,14.0,93,0.00,,,0.00,Wunderground v.1.15,2013-03-18 16:30:00,
2013-03-18 11:39:00,40.0,37.9,29.88,SSW,204,3.0,3.0,92,0.00,,,0.00,Wunderground v.1.15,2013-03-18 16:39:00,
2013-03-18 11:49:00,40.1,38.0,29.89,SW,231,4.0,4.0,92,0.00,,,0.00,Wunderground v.1.15,2013-03-18 16:49:00,
2013-03-18 11:55:00,40.3,38.2,29.89,South,169,2.0,14.0,92,0.00,,,0.00,Wunderground v.1.15,2013-03-18 16:55:00,
2013-03-18 12:05:00,40.2,37.8,29.89,ESE,103,2.0,4.0,91,0.00,,,0.00,Wunderground v.1.15,2013-03-18 17:05:00,
2013-03-18 12:10:00,40.3,38.2,29.89,SW,218,2.0,14.0,92,0.00,,,0.00,Wunderground v.1.15,2013-03-18 17:10:00,
2013-03-18 12:19:00,40.4,38.0,29.89,West,269,2.0,14.0,91,0.00,,,0.00,Wunderground v.1.15,2013-03-18 17:19:00,
2013-03-18 12:30:00,40.4,37.7,29.90,SSW,196,3.0,3.0,90,0.00,,,0.00,Wunderground v.1.15,2013-03-18 17:30:00,
2013-03-18 12:35:00,40.5,37.8,29.89,WSW,245,3.0,4.0,90,0.00,,,0.00,Wunderground v.1.15,2013-03-18 17:35:00,
2013-03-18 12:45:00,41.1,38.7,29.90,SSW,197,1.0,14.0,91,0.00,,,0.00,Wunderground v.1.15,2013-03-18 17:45:00,
2013-03-18 12:55:00,41.8,39.1,29.90,SSW,192,2.0,14.0,90,0.00,,,0.00,Wunderground v.1.15,2013-03-18 17:55:00,
2013-03-18 13:04:00,42.4,39.7,29.90,SW,235,3.0,14.0,90,0.00,,,0.00,Wunderground v.1.15,2013-03-18 18:04:00,
2013-03-18 13:10:00,43.0,39.7,29.90,West,259,3.0,3.0,88,0.00,,,0.00,Wunderground v.1.15,2013-03-18 18:10:00,
2013-03-18 13:20:00,44.8,40.9,29.90,West,262,2.0,14.0,86,0.00,,,0.00,Wunderground v.1.15,2013-03-18 18:20:00,
2013-03-18 13:29:00,45.3,40.4,29.90,WSW,257,3.0,14.0,83,0.00,,,0.00,Wunderground v.1.15,2013-03-18 18:29:00,
2013-03-18 13:39:00,46.2,41.0,29.89,SSE,157,3.0,3.0,82,0.00,,,0.00,Wunderground v.1.15,2013-03-18 18:39:00,
2013-03-18 13:49:00,47.2,41.0,29.89,SSW,200,3.0,3.0,79,0.00,,,0.00,Wunderground v.1.15,2013-03-18 18:49:00,
2013-03-18 13:55:00,48.1,41.6,29.89,West,267,3.0,14.0,78,0.00,,,0.00,Wunderground v.1.15,2013-03-18 18:55:00,
2013-03-18 14:05:00,48.4,41.2,29.89,SE,139,3.0,14.0,76,0.00,,,0.00,Wunderground v.1.15,2013-03-18 19:05:00,
2013-03-18 14:14:00,49.4,40.0,29.89,SW,233,2.0,5.0,70,0.00,,,0.00,Wunderground v.1.15,2013-03-18 19:14:00,
2013-03-18 14:24:00,49.2,40.6,29.88,West,277,4.0,14.0,72,0.00,,,0.00,Wunderground v.1.15,2013-03-18 19:24:00,
2013-03-18 14:30:00,49.3,39.6,29.89,SW,214,4.0,4.0,69,0.00,,,0.00,Wunderground v.1.15,2013-03-18 19:30:00,
2013-03-18 14:40:00,50.3,40.1,29.88,West,259,3.0,14.0,68,0.00,,,0.00,Wunderground v.1.15,2013-03-18 19:40:00,
2013-03-18 14:45:00,51.4,40.0,29.88,SE,136,2.0,14.0,65,0.00,,,0.00,Wunderground v.1.15,2013-03-18 19:45:00,
2013-03-18 14:55:00,51.9,37.6,29.88,WSW,238,3.0,3.0,58,0.00,,,0.00,Wunderground v.1.15,2013-03-18 19:55:00,
2013-03-18 15:04:00,52.3,39.2,29.88,SW,216,3.0,14.0,61,0.00,,,0.00,Wunderground v.1.15,2013-03-18 20:04:00,
2013-03-18 15:15:00,52.2,37.4,29.88,SSW,204,3.0,14.0,57,0.00,,,0.00,Wunderground v.1.15,2013-03-18 20:15:00,
2013-03-18 15:25:00,51.3,37.4,29.88,WNW,285,3.0,14.0,59,0.00,,,0.00,Wunderground v.1.15,2013-03-18 20:25:00,
2013-03-18 15:35:00,51.6,37.3,29.88,WSW,238,3.0,14.0,58,0.00,,,0.00,Wunderground v.1.15,2013-03-18 20:35:00,
2013-03-18 15:44:00,52.5,37.2,29.88,SSW,210,3.0,14.0,56,0.00,,,0.00,Wunderground v.1.15,2013-03-18 20:44:00,
2013-03-18 15:54:00,52.6,35.5,29.87,West,277,4.0,14.0,52,0.00,,,0.00,Wunderground v.1.15,2013-03-18 20:54:00,
2013-03-18 16:00:00,52.5,34.9,29.87,WNW,298,6.0,6.0,51,0.00,,,0.00,Wunderground v.1.15,2013-03-18 21:00:00,
2013-03-18 16:10:00,53.2,36.0,29.87,WNW,301,4.0,4.0,52,0.00,,,0.00,Wunderground v.1.15,2013-03-18 21:10:00,
2013-03-18 16:15:00,53.4,35.7,29.88,South,181,4.0,14.0,51,0.00,,,0.00,Wunderground v.1.15,2013-03-18 21:15:00,
2013-03-18 16:24:00,53.8,34.6,29.87,SSW,195,3.0,14.0,48,0.00,,,0.00,Wunderground v.1.15,2013-03-18 21:24:00,
2013-03-18 16:34:00,54.4,34.0,29.87,South,186,3.0,14.0,46,0.00,,,0.00,Wunderground v.1.15,2013-03-18 21:34:00,
2013-03-18 16:40:00,54.3,33.9,29.88,WSW,252,3.0,3.0,46,0.00,,,0.00,Wunderground v.1.15,2013-03-18 21:40:00,
2013-03-18 16:45:00,54.3,32.3,29.88,SSW,213,4.0,4.0,43,0.00,,,0.00,Wunderground v.1.15,2013-03-18 21:45:00,
2013-03-18 16:55:00,54.0,32.6,29.88,WSW,238,4.0,14.0,44,0.00,,,0.00,Wunderground v.1.15,2013-03-18 21:55:00,
2013-03-18 17:04:00,54.0,33.1,29.88,ESE,110,3.0,14.0,45,0.00,,,0.00,Wunderground v.1.15,2013-03-18 22:04:00,
2013-03-18 17:14:00,54.1,32.1,29.89,South,180,3.0,14.0,43,0.00,,,0.00,Wunderground v.1.15,2013-03-18 22:14:00,
2013-03-18 17:24:00,53.9,31.3,29.88,ESE,120,3.0,6.0,42,0.00,,,0.00,Wunderground v.1.15,2013-03-18 22:24:00,
2013-03-18 17:30:00,53.7,29.9,29.88,SE,133,4.0,4.0,40,0.00,,,0.00,Wunderground v.1.15,2013-03-18 22:30:00,
2013-03-18 17:40:00,53.6,28.6,29.89,SW,224,4.0,4.0,38,0.00,,,0.00,Wunderground v.1.15,2013-03-18 22:40:00,
2013-03-18 17:49:00,53.3,28.9,29.89,SW,236,4.0,4.0,39,0.00,,,0.00,Wunderground v.1.15,2013-03-18 22:49:00,
2013-03-18 17:59:00,53.1,29.4,29.90,SE,133,3.0,3.0,40,0.00,,,0.00,Wunderground v.1.15,2013-03-18 22:59:00,
2013-03-18 18:05:00,53.0,29.3,29.90,SSE,167,2.0,14.0,40,0.00,,,0.00,Wunderground v.1.15,2013-03-18 23:05:00,
2013-03-18 18:15:00,52.9,29.2,29.90,SSW,211,1.0,14.0,40,0.00,,,0.00,Wunderground v.1.15,2013-03-18 23:15:00,
2013-03-18 18:20:00,52.6,28.9,29.90,SW,232,1.0,14.0,40,0.00,,,0.00,Wunderground v.1.15,2013-03-18 23:20:00,
2013-03-18 18:25:00,52.3,28.7,29.90,SW,221,2.0,14.0,40,0.00,,,0.00,Wunderground v.1.15,2013-03-18 23:25:00,
2013-03-18 18:30:00,51.9,28.9,29.91,West,281,2.0,2.0,41,0.00,,,0.00,Wunderground v.1.15,2013-03-18 23:30:00,
2013-03-18 18:39:00,51.4,28.5,29.91,SSW,213,1.0,14.0,41,0.00,,,0.00,Wunderground v.1.15,2013-03-18 23:39:00,
2013-03-18 18:44:00,51.2,27.1,29.92,SW,219,3.0,14.0,39,0.00,,,0.00,Wunderground v.1.15,2013-03-18 23:44:00,
2013-03-18 18:54:00,50.6,25.9,29.92,SW,231,2.0,14.0,38,0.00,,,0.00,Wunderground v.1.15,2013-03-18 23:54:00,
2013-03-18 19:05:00,50.0,26.0,29.93,SW,222,2.0,6.0,39,0.00,,,0.00,Wunderground v.1.15,2013-03-19 00:05:00,
2013-03-18 19:15:00,49.2,25.9,29.92,WSW,248,2.0,14.0,40,0.00,,,0.00,Wunderground v.1.15,2013-03-19 00:15:00,
2013-03-18 19:24:00,48.6,25.9,29.93,SE,132,1.0,14.0,41,0.00,,,0.00,Wunderground v.1.15,2013-03-19 00:24:00,
2013-03-18 19:34:00,48.2,26.2,29.93,WSW,243,1.0,14.0,42,0.00,,,0.00,Wunderground v.1.15,2013-03-19 00:34:00,
2013-03-18 19:40:00,47.8,26.4,29.93,West,270,0.0,14.0,43,0.00,,,0.00,Wunderground v.1.15,2013-03-19 00:40:00,
2013-03-18 19:45:00,47.5,26.6,29.93,SSW,210,0.0,14.0,44,0.00,,,0.00,Wunderground v.1.15,2013-03-19 00:45:00,
2013-03-18 19:55:00,46.6,26.4,29.94,ESE,107,0.0,14.0,45,0.00,,,0.00,Wunderground v.1.15,2013-03-19 00:55:00,
2013-03-18 20:00:00,46.0,26.9,29.94,ESE,108,0.0,14.0,47,0.00,,,0.00,Wunderground v.1.15,2013-03-19 01:00:00,
2013-03-18 20:09:00,44.8,27.3,29.94,SW,231,0.0,14.0,50,0.00,,,0.00,Wunderground v.1.15,2013-03-19 01:09:00,
2013-03-18 20:19:00,43.9,28.3,29.95,WSW,250,0.0,14.0,54,0.00,,,0.00,Wunderground v.1.15,2013-03-19 01:19:00,
2013-03-18 20:30:00,43.3,29.5,29.95,WSW,250,0.0,14.0,58,0.00,,,0.00,Wunderground v.1.15,2013-03-19 01:30:00,
2013-03-18 20:40:00,42.4,29.9,29.95,WSW,253,0.0,14.0,61,0.00,,,0.00,Wunderground v.1.15,2013-03-19 01:40:00,
2013-03-18 20:50:00,41.7,30.0,29.96,WSW,253,0.0,14.0,63,0.00,,,0.00,Wunderground v.1.15,2013-03-19 01:50:00,
2013-03-18 20:59:00,40.3,29.1,29.96,WSW,252,0.0,14.0,64,0.00,,,0.00,Wunderground v.1.15,2013-03-19 01:59:00,
2013-03-18 21:10:00,38.9,28.9,29.97,WSW,253,0.0,14.0,67,0.00,,,0.00,Wunderground v.1.15,2013-03-19 02:10:00,
2013-03-18 21:20:00,38.3,29.0,29.97,WSW,253,0.0,14.0,69,0.00,,,0.00,Wunderground v.1.15,2013-03-19 02:20:00,
2013-03-18 21:25:00,38.3,29.4,29.98,WSW,253,0.0,14.0,70,0.00,,,0.00,Wunderground v.1.15,2013-03-19 02:25:00,
2013-03-18 21:35:00,37.8,29.6,29.99,WSW,254,0.0,14.0,72,0.00,,,0.00,Wunderground v.1.15,2013-03-19 02:35:00,
2013-03-18 21:44:00,37.9,29.0,29.99,SSE,160,0.0,14.0,70,0.00,,,0.00,Wunderground v.1.15,2013-03-19 02:44:00,
2013-03-18 21:54:00,39.6,28.8,30.00,WSW,254,0.0,14.0,65,0.00,,,0.00,Wunderground v.1.15,2013-03-19 02:54:00,
2013-03-18 22:00:00,40.8,28.8,30.01,SSW,198,0.0,14.0,62,0.00,,,0.00,Wunderground v.1.15,2013-03-19 03:00:00,
2013-03-18 22:10:00,41.7,28.4,30.02,SSW,210,0.0,14.0,59,0.00,,,0.00,Wunderground v.1.15,2013-03-19 03:10:00,
2013-03-18 22:19:00,41.4,28.1,30.03,WSW,257,0.0,14.0,59,0.00,,,0.00,Wunderground v.1.15,2013-03-19 03:19:00,
2013-03-18 22:29:00,41.4,28.1,30.03,WSW,243,0.0,14.0,59,0.00,,,0.00,Wunderground v.1.15,2013-03-19 03:29:00,
2013-03-18 22:40:00,41.9,28.2,30.04,WSW,238,0.0,14.0,58,0.00,,,0.00,Wunderground v.1.15,2013-03-19 03:40:00,
2013-03-18 22:45:00,42.1,28.4,30.04,WSW,248,2.0,14.0,58,0.00,,,0.00,Wunderground v.1.15,2013-03-19 03:45:00,
2013-03-18 22:50:00,42.1,28.4,30.05,WSW,257,3.0,14.0,58,0.00,,,0.00,Wunderground v.1.15,2013-03-19 03:50:00,
2013-03-18 23:05:00,41.3,27.6,30.05,WSW,238,0.0,14.0,58,0.00,,,0.00,Wunderground v.1.15,2013-03-19 04:05:00,
2013-03-18 23:10:00,40.9,27.7,30.06,SW,226,0.0,14.0,59,0.00,,,0.00,Wunderground v.1.15,2013-03-19 04:10:00,
2013-03-18 23:14:00,40.6,27.4,30.05,WSW,238,1.0,14.0,59,0.00,,,0.00,Wunderground v.1.15,2013-03-19 04:14:00,
2013-03-18 23:24:00,40.1,27.3,30.06,WNW,295,1.0,14.0,60,0.00,,,0.00,Wunderground v.1.15,2013-03-19 04:24:00,
2013-03-18 23:35:00,39.3,27.0,30.06,West,271,0.0,14.0,61,0.00,,,0.00,Wunderground v.1.15,2013-03-19 04:35:00,
2013-03-18 23:45:00,38.6,26.3,30.06,West,281,0.0,14.0,61,0.00,,,0.00,Wunderground v.1.15,2013-03-19 04:45:00,
2013-03-18 23:50:00,38.2,26.7,30.07,SSW,197,0.0,14.0,63,0.00,,,0.00,Wunderground v.1.15,2013-03-19 04:50:00,
2013-03-18 23:59:00,37.5,25.7,30.07,WSW,246,0.0,14.0,62,0.00,,,0.00,Wunderground v.1.15,2013-03-19 04:59:00,